sensor_id;sensor_type;location;lat;lon;timestamp;pressure;altitude;pressure_sealevel;temperature
12126;BMP180;6126;57.908;16.490;2022-07-29T00:00:54;102098.34;;;11.64
12126;BMP180;6126;57.908;16.490;2022-07-29T00:03:20;102107.13;;;11.62
12126;BMP180;6126;57.908;16.490;2022-07-29T00:05:46;102101.16;;;11.55
12126;BMP180;6126;57.908;16.490;2022-07-29T00:08:12;102095.16;;;11.52
12126;BMP180;6126;57.908;16.490;2022-07-29T00:10:38;102101.34;;;11.49
12126;BMP180;6126;57.908;16.490;2022-07-29T00:13:04;102103.97;;;11.49
12126;BMP180;6126;57.908;16.490;2022-07-29T00:15:30;102104.88;;;11.47
12126;BMP180;6126;57.908;16.490;2022-07-29T00:17:55;102114.44;;;11.48
12126;BMP180;6126;57.908;16.490;2022-07-29T00:20:22;102112.75;;;11.47
12126;BMP180;6126;57.908;16.490;2022-07-29T00:22:48;102104.13;;;11.42
12126;BMP180;6126;57.908;16.490;2022-07-29T00:25:13;102104.28;;;11.36
12126;BMP180;6126;57.908;16.490;2022-07-29T00:27:39;102100.97;;;11.28
12126;BMP180;6126;57.908;16.490;2022-07-29T00:30:06;102103.78;;;11.21
12126;BMP180;6126;57.908;16.490;2022-07-29T00:32:33;102110.78;;;11.20
12126;BMP180;6126;57.908;16.490;2022-07-29T00:34:59;102110.72;;;11.22
12126;BMP180;6126;57.908;16.490;2022-07-29T00:37:43;102103.75;;;11.22
12126;BMP180;6126;57.908;16.490;2022-07-29T00:40:10;102107.22;;;11.23
12126;BMP180;6126;57.908;16.490;2022-07-29T00:42:48;102111.59;;;11.22
12126;BMP180;6126;57.908;16.490;2022-07-29T00:45:15;102102.09;;;11.18
12126;BMP180;6126;57.908;16.490;2022-07-29T00:47:42;102109.16;;;11.15
12126;BMP180;6126;57.908;16.490;2022-07-29T00:50:11;102114.44;;;11.13
12126;BMP180;6126;57.908;16.490;2022-07-29T00:52:40;102120.66;;;11.09
12126;BMP180;6126;57.908;16.490;2022-07-29T00:55:12;102122.50;;;11.05
12126;BMP180;6126;57.908;16.490;2022-07-29T00:57:40;102116.53;;;10.98
12126;BMP180;6126;57.908;16.490;2022-07-29T01:00:10;102117.53;;;10.93
12126;BMP180;6126;57.908;16.490;2022-07-29T01:02:36;102117.59;;;10.90
12126;BMP180;6126;57.908;16.490;2022-07-29T01:05:06;102124.69;;;10.85
12126;BMP180;6126;57.908;16.490;2022-07-29T01:07:35;102129.16;;;10.80
12126;BMP180;6126;57.908;16.490;2022-07-29T01:10:06;102123.25;;;10.72
12126;BMP180;6126;57.908;16.490;2022-07-29T01:12:35;102117.22;;;10.69
12126;BMP180;6126;57.908;16.490;2022-07-29T01:15:05;102126.91;;;10.65
12126;BMP180;6126;57.908;16.490;2022-07-29T01:18:02;102119.16;;;10.61
12126;BMP180;6126;57.908;16.490;2022-07-29T01:29:59;102119.31;;;10.53
12126;BMP180;6126;57.908;16.490;2022-07-29T01:32:32;102122.78;;;10.54
12126;BMP180;6126;57.908;16.490;2022-07-29T01:37:48;102110.81;;;10.44
12126;BMP180;6126;57.908;16.490;2022-07-29T01:43:12;102122.31;;;10.36
12126;BMP180;6126;57.908;16.490;2022-07-29T01:45:56;102117.13;;;10.33
12126;BMP180;6126;57.908;16.490;2022-07-29T01:48:34;102115.50;;;10.29
12126;BMP180;6126;57.908;16.490;2022-07-29T01:51:44;102113.75;;;10.29
12126;BMP180;6126;57.908;16.490;2022-07-29T01:54:51;102119.75;;;10.33
12126;BMP180;6126;57.908;16.490;2022-07-29T01:57:28;102111.03;;;10.34
12126;BMP180;6126;57.908;16.490;2022-07-29T01:59:58;102113.66;;;10.34
12126;BMP180;6126;57.908;16.490;2022-07-29T02:02:28;102118.88;;;10.34
12126;BMP180;6126;57.908;16.490;2022-07-29T02:04:56;102108.44;;;10.34
12126;BMP180;6126;57.908;16.490;2022-07-29T02:07:27;102112.75;;;10.35
12126;BMP180;6126;57.908;16.490;2022-07-29T02:09:56;102116.28;;;10.34
12126;BMP180;6126;57.908;16.490;2022-07-29T02:12:25;102122.38;;;10.33
12126;BMP180;6126;57.908;16.490;2022-07-29T02:14:54;102117.97;;;10.35
12126;BMP180;6126;57.908;16.490;2022-07-29T02:17:29;102125.75;;;10.38
12126;BMP180;6126;57.908;16.490;2022-07-29T02:20:00;102129.28;;;10.37
12126;BMP180;6126;57.908;16.490;2022-07-29T02:22:31;102120.59;;;10.33
12126;BMP180;6126;57.908;16.490;2022-07-29T02:25:00;102118.97;;;10.28
12126;BMP180;6126;57.908;16.490;2022-07-29T02:27:28;102116.50;;;10.23
12126;BMP180;6126;57.908;16.490;2022-07-29T02:29:57;102124.34;;;10.20
12126;BMP180;6126;57.908;16.490;2022-07-29T02:32:27;102120.03;;;10.19
12126;BMP180;6126;57.908;16.490;2022-07-29T02:34:55;102128.78;;;10.17
12126;BMP180;6126;57.908;16.490;2022-07-29T02:37:23;102127.19;;;10.10
12126;BMP180;6126;57.908;16.490;2022-07-29T02:39:53;102113.38;;;10.05
12126;BMP180;6126;57.908;16.490;2022-07-29T02:42:23;102116.91;;;10.03
12126;BMP180;6126;57.908;16.490;2022-07-29T02:44:50;102122.97;;;10.03
12126;BMP180;6126;57.908;16.490;2022-07-29T02:47:29;102125.59;;;10.03
12126;BMP180;6126;57.908;16.490;2022-07-29T02:50:15;102116.94;;;10.00
12126;BMP180;6126;57.908;16.490;2022-07-29T02:52:47;102130.03;;;9.98
12126;BMP180;6126;57.908;16.490;2022-07-29T02:55:27;102130.94;;;9.97
12126;BMP180;6126;57.908;16.490;2022-07-29T02:58:10;102138.78;;;9.96
12126;BMP180;6126;57.908;16.490;2022-07-29T03:00:41;102135.31;;;9.95
12126;BMP180;6126;57.908;16.490;2022-07-29T03:03:12;102131.88;;;9.93
12126;BMP180;6126;57.908;16.490;2022-07-29T03:05:39;102134.56;;;9.89
12126;BMP180;6126;57.908;16.490;2022-07-29T03:08:09;102132.84;;;9.88
12126;BMP180;6126;57.908;16.490;2022-07-29T03:10:39;102142.38;;;9.90
12126;BMP180;6126;57.908;16.490;2022-07-29T03:13:09;102134.47;;;9.93
12126;BMP180;6126;57.908;16.490;2022-07-29T03:15:36;102140.56;;;9.95
12126;BMP180;6126;57.908;16.490;2022-07-29T03:18:03;102139.63;;;9.98
12126;BMP180;6126;57.908;16.490;2022-07-29T03:20:29;102142.13;;;10.02
12126;BMP180;6126;57.908;16.490;2022-07-29T03:22:55;102141.31;;;10.00
12126;BMP180;6126;57.908;16.490;2022-07-29T03:25:21;102149.97;;;10.04
12126;BMP180;6126;57.908;16.490;2022-07-29T03:27:48;102152.63;;;10.01
12126;BMP180;6126;57.908;16.490;2022-07-29T03:30:18;102150.03;;;9.99
12126;BMP180;6126;57.908;16.490;2022-07-29T03:32:44;102152.75;;;9.95
12126;BMP180;6126;57.908;16.490;2022-07-29T03:35:10;102159.69;;;9.94
12126;BMP180;6126;57.908;16.490;2022-07-29T03:37:36;102152.72;;;9.96
12126;BMP180;6126;57.908;16.490;2022-07-29T03:40:06;102158.72;;;10.00
12126;BMP180;6126;57.908;16.490;2022-07-29T03:42:36;102151.72;;;10.03
12126;BMP180;6126;57.908;16.490;2022-07-29T03:45:07;102155.13;;;10.07
12126;BMP180;6126;57.908;16.490;2022-07-29T03:47:42;102162.88;;;10.11
12126;BMP180;6126;57.908;16.490;2022-07-29T03:50:12;102161.97;;;10.14
12126;BMP180;6126;57.908;16.490;2022-07-29T03:52:40;102166.34;;;10.13
12126;BMP180;6126;57.908;16.490;2022-07-29T03:55:08;102167.19;;;10.14
12126;BMP180;6126;57.908;16.490;2022-07-29T03:57:35;102162.75;;;10.17
12126;BMP180;6126;57.908;16.490;2022-07-29T04:00:04;102156.63;;;10.19
12126;BMP180;6126;57.908;16.490;2022-07-29T04:02:32;102163.47;;;10.25
12126;BMP180;6126;57.908;16.490;2022-07-29T04:04:58;102166.84;;;10.31
12126;BMP180;6126;57.908;16.490;2022-07-29T04:07:25;102168.47;;;10.37
12126;BMP180;6126;57.908;16.490;2022-07-29T04:09:51;102173.56;;;10.43
12126;BMP180;6126;57.908;16.490;2022-07-29T04:12:17;102176.06;;;10.48
12126;BMP180;6126;57.908;16.490;2022-07-29T04:14:43;102176.81;;;10.53
12126;BMP180;6126;57.908;16.490;2022-07-29T04:17:09;102179.31;;;10.59
12126;BMP180;6126;57.908;16.490;2022-07-29T04:19:35;102187.00;;;10.67
12126;BMP180;6126;57.908;16.490;2022-07-29T04:22:02;102189.50;;;10.73
12126;BMP180;6126;57.908;16.490;2022-07-29T04:24:28;102190.16;;;10.82
12126;BMP180;6126;57.908;16.490;2022-07-29T04:26:54;102183.84;;;10.90
12126;BMP180;6126;57.908;16.490;2022-07-29T04:29:20;102180.06;;;11.05
12126;BMP180;6126;57.908;16.490;2022-07-29T04:31:46;102179.56;;;11.25
12126;BMP180;6126;57.908;16.490;2022-07-29T04:34:12;102191.84;;;11.59
12126;BMP180;6126;57.908;16.490;2022-07-29T04:36:38;102189.28;;;12.24
12126;BMP180;6126;57.908;16.490;2022-07-29T04:39:04;102190.81;;;13.46
12126;BMP180;6126;57.908;16.490;2022-07-29T04:41:31;102182.47;;;13.85
12126;BMP180;6126;57.908;16.490;2022-07-29T04:43:57;102177.72;;;13.96
12126;BMP180;6126;57.908;16.490;2022-07-29T04:46:23;102178.72;;;13.92
12126;BMP180;6126;57.908;16.490;2022-07-29T04:48:49;102188.94;;;13.75
12126;BMP180;6126;57.908;16.490;2022-07-29T04:51:15;102188.44;;;13.64
12126;BMP180;6126;57.908;16.490;2022-07-29T04:53:41;102192.06;;;13.60
12126;BMP180;6126;57.908;16.490;2022-07-29T04:56:07;102195.59;;;13.61
12126;BMP180;6126;57.908;16.490;2022-07-29T04:58:36;102192.22;;;13.82
12126;BMP180;6126;57.908;16.490;2022-07-29T05:01:03;102186.41;;;14.23
12126;BMP180;6126;57.908;16.490;2022-07-29T05:03:30;102186.13;;;14.55
12126;BMP180;6126;57.908;16.490;2022-07-29T05:05:55;102179.06;;;14.55
12126;BMP180;6126;57.908;16.490;2022-07-29T05:08:22;102177.66;;;14.47
12126;BMP180;6126;57.908;16.490;2022-07-29T05:10:47;102187.34;;;14.45
12126;BMP180;6126;57.908;16.490;2022-07-29T05:13:13;102188.16;;;14.47
12126;BMP180;6126;57.908;16.490;2022-07-29T05:15:39;102202.09;;;14.49
12126;BMP180;6126;57.908;16.490;2022-07-29T05:18:06;102203.94;;;14.47
12126;BMP180;6126;57.908;16.490;2022-07-29T05:20:32;102191.81;;;14.43
12126;BMP180;6126;57.908;16.490;2022-07-29T05:23:01;102188.94;;;14.49
12126;BMP180;6126;57.908;16.490;2022-07-29T05:25:28;102193.72;;;14.62
12126;BMP180;6126;57.908;16.490;2022-07-29T05:27:55;102189.53;;;14.79
12126;BMP180;6126;57.908;16.490;2022-07-29T05:30:21;102189.03;;;14.93
12126;BMP180;6126;57.908;16.490;2022-07-29T05:32:48;102178.09;;;15.03
12126;BMP180;6126;57.908;16.490;2022-07-29T05:35:15;102183.72;;;15.17
12126;BMP180;6126;57.908;16.490;2022-07-29T05:37:41;102177.84;;;15.32
12126;BMP180;6126;57.908;16.490;2022-07-29T05:40:08;102186.97;;;15.44
12126;BMP180;6126;57.908;16.490;2022-07-29T05:42:34;102176.94;;;15.54
12126;BMP180;6126;57.908;16.490;2022-07-29T05:45:01;102177.41;;;15.63
12126;BMP180;6126;57.908;16.490;2022-07-29T05:47:27;102182.31;;;15.72
12126;BMP180;6126;57.908;16.490;2022-07-29T05:49:53;102172.22;;;15.81
12126;BMP180;6126;57.908;16.490;2022-07-29T05:52:20;102177.25;;;15.87
12126;BMP180;6126;57.908;16.490;2022-07-29T05:54:46;102181.53;;;15.90
12126;BMP180;6126;57.908;16.490;2022-07-29T05:57:20;102172.56;;;15.94
12126;BMP180;6126;57.908;16.490;2022-07-29T05:59:48;102183.78;;;15.99
12126;BMP180;6126;57.908;16.490;2022-07-29T06:02:15;102178.31;;;16.03
12126;BMP180;6126;57.908;16.490;2022-07-29T06:04:41;102168.50;;;16.06
12126;BMP180;6126;57.908;16.490;2022-07-29T06:07:07;102173.50;;;16.12
12126;BMP180;6126;57.908;16.490;2022-07-29T06:09:34;102165.38;;;16.18
12126;BMP180;6126;57.908;16.490;2022-07-29T06:12:00;102170.41;;;16.23
12126;BMP180;6126;57.908;16.490;2022-07-29T06:14:26;102169.28;;;16.28
12126;BMP180;6126;57.908;16.490;2022-07-29T06:16:54;102167.06;;;16.39
12126;BMP180;6126;57.908;16.490;2022-07-29T06:19:20;102173.78;;;16.46
12126;BMP180;6126;57.908;16.490;2022-07-29T06:21:47;102176.91;;;16.54
12126;BMP180;6126;57.908;16.490;2022-07-29T06:24:15;102169.50;;;16.62
12126;BMP180;6126;57.908;16.490;2022-07-29T06:26:42;102171.81;;;16.69
12126;BMP180;6126;57.908;16.490;2022-07-29T06:29:09;102180.38;;;16.74
12126;BMP180;6126;57.908;16.490;2022-07-29T06:31:36;102175.81;;;16.77
12126;BMP180;6126;57.908;16.490;2022-07-29T06:34:03;102172.13;;;16.81
12126;BMP180;6126;57.908;16.490;2022-07-29T06:36:30;102178.84;;;16.88
12126;BMP180;6126;57.908;16.490;2022-07-29T06:38:56;102180.25;;;16.95
12126;BMP180;6126;57.908;16.490;2022-07-29T06:41:22;102184.38;;;17.00
12126;BMP180;6126;57.908;16.490;2022-07-29T06:43:49;102174.41;;;17.07
12126;BMP180;6126;57.908;16.490;2022-07-29T06:46:18;102175.84;;;17.14
12126;BMP180;6126;57.908;16.490;2022-07-29T06:48:45;102177.13;;;17.24
12126;BMP180;6126;57.908;16.490;2022-07-29T06:51:11;102173.13;;;17.33
12126;BMP180;6126;57.908;16.490;2022-07-29T06:53:39;102173.56;;;17.43
12126;BMP180;6126;57.908;16.490;2022-07-29T06:56:06;102167.81;;;17.52
12126;BMP180;6126;57.908;16.490;2022-07-29T06:58:35;102166.44;;;17.61
12126;BMP180;6126;57.908;16.490;2022-07-29T07:01:04;102170.63;;;17.65
12126;BMP180;6126;57.908;16.490;2022-07-29T07:03:31;102171.19;;;17.72
12126;BMP180;6126;57.908;16.490;2022-07-29T07:05:57;102176.16;;;17.78
12126;BMP180;6126;57.908;16.490;2022-07-29T07:08:24;102171.41;;;17.84
12126;BMP180;6126;57.908;16.490;2022-07-29T07:10:52;102161.31;;;17.92
12126;BMP180;6126;57.908;16.490;2022-07-29T07:13:18;102164.34;;;18.01
12126;BMP180;6126;57.908;16.490;2022-07-29T07:15:45;102165.63;;;18.11
12126;BMP180;6126;57.908;16.490;2022-07-29T07:18:14;102160.63;;;18.22
12126;BMP180;6126;57.908;16.490;2022-07-29T07:20:41;102157.50;;;18.31
12126;BMP180;6126;57.908;16.490;2022-07-29T07:23:07;102157.03;;;18.40
12126;BMP180;6126;57.908;16.490;2022-07-29T07:25:33;102137.09;;;18.50
12126;BMP180;6126;57.908;16.490;2022-07-29T07:27:59;102132.06;;;18.60
12126;BMP180;6126;57.908;16.490;2022-07-29T07:30:26;102127.09;;;18.70
12126;BMP180;6126;57.908;16.490;2022-07-29T07:32:53;102135.41;;;18.79
12126;BMP180;6126;57.908;16.490;2022-07-29T07:35:18;102131.19;;;18.92
12126;BMP180;6126;57.908;16.490;2022-07-29T07:37:46;102134.88;;;19.05
12126;BMP180;6126;57.908;16.490;2022-07-29T07:40:13;102130.50;;;19.19
12126;BMP180;6126;57.908;16.490;2022-07-29T07:42:40;102129.16;;;19.27
12126;BMP180;6126;57.908;16.490;2022-07-29T07:45:08;102120.72;;;19.35
12126;BMP180;6126;57.908;16.490;2022-07-29T07:47:36;102130.63;;;19.46
12126;BMP180;6126;57.908;16.490;2022-07-29T07:50:08;102125.69;;;19.56
12126;BMP180;6126;57.908;16.490;2022-07-29T07:52:34;102116.22;;;19.66
12126;BMP180;6126;57.908;16.490;2022-07-29T07:55:00;102112.78;;;19.79
12126;BMP180;6126;57.908;16.490;2022-07-29T07:57:26;102118.03;;;19.94
12126;BMP180;6126;57.908;16.490;2022-07-29T07:59:52;102112.00;;;20.06
12126;BMP180;6126;57.908;16.490;2022-07-29T08:02:18;102105.94;;;20.18
12126;BMP180;6126;57.908;16.490;2022-07-29T08:04:44;102110.50;;;20.30
12126;BMP180;6126;57.908;16.490;2022-07-29T08:07:10;102114.88;;;20.44
12126;BMP180;6126;57.908;16.490;2022-07-29T08:09:36;102110.56;;;20.57
12126;BMP180;6126;57.908;16.490;2022-07-29T08:12:02;102111.31;;;20.73
12126;BMP180;6126;57.908;16.490;2022-07-29T08:14:30;102104.06;;;20.89
12126;BMP180;6126;57.908;16.490;2022-07-29T08:16:57;102110.09;;;21.04
12126;BMP180;6126;57.908;16.490;2022-07-29T08:19:23;102114.31;;;21.21
12126;BMP180;6126;57.908;16.490;2022-07-29T08:21:49;102114.22;;;21.36
12126;BMP180;6126;57.908;16.490;2022-07-29T08:24:15;102111.50;;;21.50
12126;BMP180;6126;57.908;16.490;2022-07-29T08:26:59;102103.09;;;21.56
12126;BMP180;6126;57.908;16.490;2022-07-29T08:29:25;102101.31;;;21.68
12126;BMP180;6126;57.908;16.490;2022-07-29T08:31:51;102112.84;;;21.81
12126;BMP180;6126;57.908;16.490;2022-07-29T08:34:17;102108.41;;;21.94
12126;BMP180;6126;57.908;16.490;2022-07-29T08:36:43;102097.78;;;22.06
12126;BMP180;6126;57.908;16.490;2022-07-29T08:39:08;102091.13;;;22.13
12126;BMP180;6126;57.908;16.490;2022-07-29T08:41:35;102093.13;;;22.22
12126;BMP180;6126;57.908;16.490;2022-07-29T08:44:01;102086.28;;;22.30
12126;BMP180;6126;57.908;16.490;2022-07-29T08:46:28;102084.91;;;22.13
12126;BMP180;6126;57.908;16.490;2022-07-29T08:48:55;102102.44;;;21.91
12126;BMP180;6126;57.908;16.490;2022-07-29T08:51:22;102099.03;;;21.89
12126;BMP180;6126;57.908;16.490;2022-07-29T08:53:50;102099.34;;;21.96
12126;BMP180;6126;57.908;16.490;2022-07-29T08:56:18;102084.56;;;22.05
12126;BMP180;6126;57.908;16.490;2022-07-29T08:58:48;102092.72;;;22.16
12126;BMP180;6126;57.908;16.490;2022-07-29T09:01:22;102082.78;;;22.18
12126;BMP180;6126;57.908;16.490;2022-07-29T09:03:49;102087.03;;;22.20
12126;BMP180;6126;57.908;16.490;2022-07-29T09:06:18;102086.28;;;22.43
12126;BMP180;6126;57.908;16.490;2022-07-29T09:08:46;102074.34;;;22.60
12126;BMP180;6126;57.908;16.490;2022-07-29T09:11:13;102071.44;;;22.63
12126;BMP180;6126;57.908;16.490;2022-07-29T09:13:40;102073.78;;;22.68
12126;BMP180;6126;57.908;16.490;2022-07-29T09:16:06;102067.63;;;22.55
12126;BMP180;6126;57.908;16.490;2022-07-29T09:18:44;102073.41;;;22.25
12126;BMP180;6126;57.908;16.490;2022-07-29T09:21:17;102089.66;;;21.95
12126;BMP180;6126;57.908;16.490;2022-07-29T09:24:09;102104.13;;;21.92
12126;BMP180;6126;57.908;16.490;2022-07-29T09:26:43;102078.91;;;21.97
12126;BMP180;6126;57.908;16.490;2022-07-29T09:29:19;102089.03;;;21.92
12126;BMP180;6126;57.908;16.490;2022-07-29T09:31:49;102091.78;;;21.78
12126;BMP180;6126;57.908;16.490;2022-07-29T09:34:24;102089.53;;;21.72
12126;BMP180;6126;57.908;16.490;2022-07-29T09:36:53;102085.19;;;21.71
12126;BMP180;6126;57.908;16.490;2022-07-29T09:39:32;102080.38;;;21.76
12126;BMP180;6126;57.908;16.490;2022-07-29T09:42:02;102083.72;;;21.92
12126;BMP180;6126;57.908;16.490;2022-07-29T09:44:48;102068.56;;;22.05
12126;BMP180;6126;57.908;16.490;2022-07-29T09:47:18;102069.22;;;21.96
12126;BMP180;6126;57.908;16.490;2022-07-29T09:52:19;102075.34;;;21.60
12126;BMP180;6126;57.908;16.490;2022-07-29T09:54:45;102078.81;;;21.48
12126;BMP180;6126;57.908;16.490;2022-07-29T09:57:28;102082.19;;;21.37
12126;BMP180;6126;57.908;16.490;2022-07-29T10:00:05;102086.38;;;21.28
12126;BMP180;6126;57.908;16.490;2022-07-29T10:02:37;102072.63;;;21.21
12126;BMP180;6126;57.908;16.490;2022-07-29T10:05:30;102090.88;;;21.13
12126;BMP180;6126;57.908;16.490;2022-07-29T10:07:57;102090.59;;;21.18
12126;BMP180;6126;57.908;16.490;2022-07-29T10:10:34;102086.69;;;21.23
12126;BMP180;6126;57.908;16.490;2022-07-29T10:13:07;102087.94;;;21.18
12126;BMP180;6126;57.908;16.490;2022-07-29T10:15:37;102082.56;;;21.05
12126;BMP180;6126;57.908;16.490;2022-07-29T10:18:07;102077.16;;;20.93
12126;BMP180;6126;57.908;16.490;2022-07-29T10:20:34;102078.41;;;21.02
12126;BMP180;6126;57.908;16.490;2022-07-29T10:23:01;102077.34;;;21.30
12126;BMP180;6126;57.908;16.490;2022-07-29T10:25:27;102069.19;;;21.59
12126;BMP180;6126;57.908;16.490;2022-07-29T10:27:54;102057.50;;;21.86
12126;BMP180;6126;57.908;16.490;2022-07-29T10:30:23;102051.47;;;22.09
12126;BMP180;6126;57.908;16.490;2022-07-29T10:42:14;102045.72;;;22.87
12126;BMP180;6126;57.908;16.490;2022-07-29T10:44:43;102038.63;;;22.98
12126;BMP180;6126;57.908;16.490;2022-07-29T10:47:26;102044.16;;;23.08
12126;BMP180;6126;57.908;16.490;2022-07-29T10:50:04;102038.47;;;23.12
12126;BMP180;6126;57.908;16.490;2022-07-29T10:55:37;102043.97;;;23.21
12126;BMP180;6126;57.908;16.490;2022-07-29T10:58:23;102031.28;;;23.25
12126;BMP180;6126;57.908;16.490;2022-07-29T11:00:54;102034.03;;;23.23
12126;BMP180;6126;57.908;16.490;2022-07-29T11:03:47;102035.63;;;23.26
12126;BMP180;6126;57.908;16.490;2022-07-29T11:06:14;102033.69;;;23.28
12126;BMP180;6126;57.908;16.490;2022-07-29T11:08:41;102035.16;;;23.32
12126;BMP180;6126;57.908;16.490;2022-07-29T11:13:47;102033.13;;;23.35
12126;BMP180;6126;57.908;16.490;2022-07-29T11:16:14;102030.47;;;23.35
12126;BMP180;6126;57.908;16.490;2022-07-29T11:21:41;102023.88;;;23.52
12126;BMP180;6126;57.908;16.490;2022-07-29T11:24:30;102024.84;;;23.51
12126;BMP180;6126;57.908;16.490;2022-07-29T11:27:16;102025.25;;;23.45
12126;BMP180;6126;57.908;16.490;2022-07-29T11:29:51;102018.81;;;23.36
12126;BMP180;6126;57.908;16.490;2022-07-29T11:32:18;102025.47;;;23.31
12126;BMP180;6126;57.908;16.490;2022-07-29T11:34:48;102026.66;;;23.27
12126;BMP180;6126;57.908;16.490;2022-07-29T11:37:17;102024.84;;;23.27
12126;BMP180;6126;57.908;16.490;2022-07-29T11:44:59;102024.50;;;23.32
12126;BMP180;6126;57.908;16.490;2022-07-29T11:47:28;102028.22;;;23.29
12126;BMP180;6126;57.908;16.490;2022-07-29T11:49:56;102017.94;;;23.25
12126;BMP180;6126;57.908;16.490;2022-07-29T11:52:34;102025.41;;;23.20
12126;BMP180;6126;57.908;16.490;2022-07-29T11:55:05;102034.59;;;23.16
12126;BMP180;6126;57.908;16.490;2022-07-29T11:57:33;102032.91;;;23.15
12126;BMP180;6126;57.908;16.490;2022-07-29T12:00:00;102038.47;;;23.12
12126;BMP180;6126;57.908;16.490;2022-07-29T12:02:42;102042.09;;;23.11
12126;BMP180;6126;57.908;16.490;2022-07-29T12:05:09;102036.66;;;23.13
12126;BMP180;6126;57.908;16.490;2022-07-29T12:07:37;102034.59;;;23.16
12126;BMP180;6126;57.908;16.490;2022-07-29T12:10:05;102035.13;;;23.21
12126;BMP180;6126;57.908;16.490;2022-07-29T12:12:33;102023.38;;;23.23
12126;BMP180;6126;57.908;16.490;2022-07-29T12:17:37;102019.97;;;23.21
12126;BMP180;6126;57.908;16.490;2022-07-29T12:20:05;102030.00;;;23.18
12126;BMP180;6126;57.908;16.490;2022-07-29T12:22:34;102029.41;;;23.15
12126;BMP180;6126;57.908;16.490;2022-07-29T12:25:12;102023.41;;;23.11
12126;BMP180;6126;57.908;16.490;2022-07-29T12:27:41;102033.25;;;23.11
12126;BMP180;6126;57.908;16.490;2022-07-29T12:30:12;102048.41;;;23.10
12126;BMP180;6126;57.908;16.490;2022-07-29T12:32:47;102031.56;;;23.10
12126;BMP180;6126;57.908;16.490;2022-07-29T12:35:18;102030.72;;;23.09
12126;BMP180;6126;57.908;16.490;2022-07-29T12:37:46;102030.72;;;23.09
12126;BMP180;6126;57.908;16.490;2022-07-29T12:40:16;102036.03;;;23.09
12126;BMP180;6126;57.908;16.490;2022-07-29T12:43:14;102037.72;;;23.10
12126;BMP180;6126;57.908;16.490;2022-07-29T12:45:45;102032.63;;;23.07
12126;BMP180;6126;57.908;16.490;2022-07-29T12:48:13;102041.56;;;23.06
12126;BMP180;6126;57.908;16.490;2022-07-29T12:51:00;102041.72;;;23.05
12126;BMP180;6126;57.908;16.490;2022-07-29T12:53:27;102045.22;;;23.05
12126;BMP180;6126;57.908;16.490;2022-07-29T12:55:56;102036.13;;;23.08
12126;BMP180;6126;57.908;16.490;2022-07-29T12:58:33;102036.03;;;23.09
12126;BMP180;6126;57.908;16.490;2022-07-29T13:01:02;102030.56;;;23.11
12126;BMP180;6126;57.908;16.490;2022-07-29T13:03:44;102028.66;;;23.13
12126;BMP180;6126;57.908;16.490;2022-07-29T13:06:32;102033.00;;;23.14
12126;BMP180;6126;57.908;16.490;2022-07-29T13:11:50;102036.53;;;23.14
12126;BMP180;6126;57.908;16.490;2022-07-29T13:14:41;102030.00;;;23.18
12126;BMP180;6126;57.908;16.490;2022-07-29T13:17:11;102033.53;;;23.19
12126;BMP180;6126;57.908;16.490;2022-07-29T13:22:23;102024.34;;;23.22
12126;BMP180;6126;57.908;16.490;2022-07-29T13:27:18;102022.75;;;23.20
12126;BMP180;6126;57.908;16.490;2022-07-29T13:29:45;102029.28;;;23.16
12126;BMP180;6126;57.908;16.490;2022-07-29T13:32:12;102031.19;;;23.14
12126;BMP180;6126;57.908;16.490;2022-07-29T13:34:39;102026.84;;;23.13
12126;BMP180;6126;57.908;16.490;2022-07-29T13:37:06;102027.06;;;23.10
12126;BMP180;6126;57.908;16.490;2022-07-29T13:39:32;102023.88;;;23.05
12126;BMP180;6126;57.908;16.490;2022-07-29T13:41:58;102036.47;;;23.03
12126;BMP180;6126;57.908;16.490;2022-07-29T13:44:24;102023.28;;;23.02
12126;BMP180;6126;57.908;16.490;2022-07-29T13:46:50;102021.69;;;22.99
12126;BMP180;6126;57.908;16.490;2022-07-29T13:49:16;102031.84;;;22.94
12126;BMP180;6126;57.908;16.490;2022-07-29T13:51:43;102017.00;;;22.90
12126;BMP180;6126;57.908;16.490;2022-07-29T13:54:08;102020.75;;;22.88
12126;BMP180;6126;57.908;16.490;2022-07-29T13:56:34;102022.56;;;22.88
12126;BMP180;6126;57.908;16.490;2022-07-29T13:59:00;102021.63;;;22.89
12126;BMP180;6126;57.908;16.490;2022-07-29T14:01:26;102020.75;;;22.88
12126;BMP180;6126;57.908;16.490;2022-07-29T14:03:53;102018.22;;;22.87
12126;BMP180;6126;57.908;16.490;2022-07-29T14:06:19;102015.78;;;22.84
12126;BMP180;6126;57.908;16.490;2022-07-29T14:08:45;102010.53;;;22.82
12126;BMP180;6126;57.908;16.490;2022-07-29T14:11:10;102011.59;;;22.80
12126;BMP180;6126;57.908;16.490;2022-07-29T14:13:36;102011.81;;;22.77
12126;BMP180;6126;57.908;16.490;2022-07-29T14:16:02;102017.38;;;22.74
12126;BMP180;6126;57.908;16.490;2022-07-29T14:18:28;102016.63;;;22.72
12126;BMP180;6126;57.908;16.490;2022-07-29T14:20:54;102013.09;;;22.71
12126;BMP180;6126;57.908;16.490;2022-07-29T14:23:20;102005.22;;;22.70
12126;BMP180;6126;57.908;16.490;2022-07-29T14:25:46;102009.06;;;22.66
12126;BMP180;6126;57.908;16.490;2022-07-29T14:28:12;102019.97;;;22.63
12126;BMP180;6126;57.908;16.490;2022-07-29T14:30:38;102020.91;;;22.62
12126;BMP180;6126;57.908;16.490;2022-07-29T14:33:04;102016.47;;;22.62
12126;BMP180;6126;57.908;16.490;2022-07-29T14:35:30;102009.53;;;22.60
12126;BMP180;6126;57.908;16.490;2022-07-29T14:37:56;102010.59;;;22.58
12126;BMP180;6126;57.908;16.490;2022-07-29T14:40:23;102009.75;;;22.57
12126;BMP180;6126;57.908;16.490;2022-07-29T14:42:49;102009.75;;;22.57
12126;BMP180;6126;57.908;16.490;2022-07-29T14:45:14;102006.34;;;22.55
12126;BMP180;6126;57.908;16.490;2022-07-29T14:47:40;102010.94;;;22.53
12126;BMP180;6126;57.908;16.490;2022-07-29T14:50:08;102010.19;;;22.51
12126;BMP180;6126;57.908;16.490;2022-07-29T14:52:34;102013.81;;;22.50
12126;BMP180;6126;57.908;16.490;2022-07-29T14:55:00;102012.97;;;22.50
12126;BMP180;6126;57.908;16.490;2022-07-29T14:57:26;102015.72;;;22.48
12126;BMP180;6126;57.908;16.490;2022-07-29T14:59:52;102017.66;;;22.46